createdAt,value
2023-04-30T00:00:12.873Z,67.60
2023-04-30T00:02:37.073Z,67.28
2023-04-30T00:05:00.719Z,67.55
2023-04-30T00:07:24.414Z,67.89
2023-04-30T00:09:47.957Z,67.29
2023-04-30T00:21:06.020Z,67.43
2023-04-30T00:23:29.578Z,67.45
2023-04-30T00:25:53.081Z,67.34
2023-04-30T00:28:16.671Z,67.52
2023-04-30T00:30:40.300Z,67.25
2023-04-30T00:33:04.898Z,67.46
2023-04-30T00:35:28.489Z,67.91
2023-04-30T00:37:53.691Z,67.26
2023-04-30T00:40:17.545Z,70.65
2023-04-30T00:42:41.114Z,70.46
2023-04-30T00:45:05.007Z,69.97
2023-04-30T00:47:28.798Z,71.21
2023-04-30T00:49:52.937Z,72.16
2023-04-30T00:52:16.759Z,72.02
2023-04-30T00:54:41.995Z,71.79
2023-04-30T00:57:09.009Z,70.79
2023-04-30T00:59:33.551Z,71.24
2023-04-30T01:01:57.498Z,71.92
2023-04-30T01:04:21.651Z,71.57
2023-04-30T01:06:46.658Z,68.90
2023-04-30T01:09:10.462Z,70.61
2023-04-30T01:11:53.835Z,69.96
2023-04-30T01:14:32.500Z,70.24
2023-04-30T01:17:06.026Z,70.56
2023-04-30T01:19:43.249Z,69.34
2023-04-30T01:22:10.848Z,70.71
2023-04-30T01:24:54.091Z,70.67
2023-04-30T01:27:33.634Z,72.46
2023-04-30T01:29:59.324Z,70.69
2023-04-30T01:32:23.208Z,70.65
2023-04-30T01:34:47.102Z,71.37
2023-04-30T01:37:23.716Z,70.68
2023-04-30T01:40:02.419Z,71.30
2023-04-30T01:42:36.972Z,71.35
2023-04-30T01:45:26.018Z,71.46
2023-04-30T01:47:57.506Z,73.97
2023-04-30T01:50:32.251Z,74.69
2023-04-30T01:52:59.053Z,73.33
2023-04-30T01:55:29.001Z,74.05
2023-04-30T01:57:59.154Z,75.05
2023-04-30T02:00:24.911Z,75.22
2023-04-30T02:02:48.538Z,74.94
2023-04-30T02:05:12.763Z,73.69
2023-04-30T02:07:41.620Z,75.68
2023-04-30T02:10:06.026Z,76.37
2023-04-30T02:12:30.208Z,75.89
2023-04-30T02:14:53.826Z,76.70
2023-04-30T02:17:18.778Z,75.64
2023-04-30T02:19:42.376Z,74.81
2023-04-30T02:22:06.005Z,75.25
2023-04-30T02:24:29.582Z,75.23
2023-04-30T02:26:53.131Z,77.72
2023-04-30T02:29:17.414Z,79.17
2023-04-30T02:31:41.029Z,77.21
2023-04-30T02:34:09.122Z,77.08
2023-04-30T02:36:36.257Z,75.99
2023-04-30T02:38:59.845Z,77.83
2023-04-30T02:41:23.444Z,78.19
2023-04-30T02:43:47.069Z,77.66
2023-04-30T02:46:10.675Z,76.37
2023-04-30T02:48:34.341Z,76.16
2023-04-30T02:50:59.254Z,77.23
2023-04-30T02:53:22.857Z,77.61
2023-04-30T02:55:46.387Z,79.36
2023-04-30T02:58:09.984Z,79.89
2023-04-30T03:00:33.531Z,77.19
2023-04-30T03:02:57.365Z,77.92
2023-04-30T03:05:21.121Z,80.89
2023-04-30T03:07:46.188Z,78.49
2023-04-30T03:10:11.646Z,79.15
2023-04-30T03:12:35.255Z,78.03
2023-04-30T03:14:58.790Z,78.55
2023-04-30T03:17:23.674Z,79.26
2023-04-30T03:19:47.244Z,78.70
2023-04-30T03:22:11.970Z,78.83
2023-04-30T03:24:36.905Z,78.88
2023-04-30T03:27:02.067Z,80.66
2023-04-30T03:29:25.716Z,79.84
2023-04-30T03:31:49.393Z,80.53
2023-04-30T03:34:13.267Z,80.12
2023-04-30T03:36:37.301Z,79.71
2023-04-30T03:39:00.891Z,81.66
2023-04-30T03:41:25.982Z,80.07
2023-04-30T03:43:49.489Z,81.34
2023-04-30T03:46:13.188Z,82.29
2023-04-30T03:48:36.740Z,82.32
2023-04-30T03:51:00.738Z,83.36
2023-04-30T03:53:25.886Z,83.68
2023-04-30T03:55:51.330Z,81.43
2023-04-30T03:58:16.737Z,80.24
2023-04-30T04:00:42.787Z,79.63
2023-04-30T04:03:07.455Z,81.50
2023-04-30T04:05:31.052Z,82.55
2023-04-30T04:07:54.720Z,84.50
2023-04-30T04:10:18.451Z,82.13
2023-04-30T04:12:42.022Z,82.59
2023-04-30T04:15:08.943Z,83.65
2023-04-30T04:17:32.589Z,81.54
2023-04-30T04:19:57.220Z,82.35
2023-04-30T04:22:21.902Z,82.16
2023-04-30T04:24:45.773Z,81.37
2023-04-30T04:27:12.788Z,82.74
2023-04-30T04:29:36.633Z,82.84
2023-04-30T04:32:02.913Z,82.37
2023-04-30T04:34:27.977Z,83.36
2023-04-30T04:36:51.537Z,83.55
2023-04-30T04:39:15.620Z,83.47
2023-04-30T04:41:39.211Z,83.19
2023-04-30T04:44:04.438Z,83.81
2023-04-30T04:46:28.441Z,83.21
2023-04-30T04:48:53.631Z,81.98
2023-04-30T04:51:17.238Z,82.08
2023-04-30T04:53:41.010Z,82.71
2023-04-30T04:56:04.724Z,81.99
2023-04-30T04:58:28.360Z,82.22
2023-04-30T05:00:53.041Z,81.49
2023-04-30T05:03:16.728Z,81.48
2023-04-30T05:05:41.740Z,82.24
2023-04-30T05:08:05.452Z,80.92
2023-04-30T05:10:28.999Z,80.52
2023-04-30T05:12:54.242Z,81.66
2023-04-30T05:15:17.992Z,81.19
2023-04-30T05:17:41.967Z,81.19
2023-04-30T05:20:07.435Z,80.25
2023-04-30T05:22:32.509Z,80.72
2023-04-30T05:24:56.043Z,80.48
2023-04-30T05:27:19.623Z,80.04
2023-04-30T05:29:43.175Z,79.65
2023-04-30T05:32:08.046Z,79.49
2023-04-30T05:34:32.313Z,78.12
2023-04-30T05:36:55.951Z,78.38
2023-04-30T05:39:20.965Z,78.32
2023-04-30T05:41:44.563Z,77.68
2023-04-30T05:44:08.071Z,77.53
2023-04-30T05:46:31.659Z,75.85
2023-04-30T05:48:55.265Z,75.66
2023-04-30T05:51:18.943Z,73.15
2023-04-30T05:53:42.461Z,72.88
2023-04-30T05:56:08.925Z,70.29
2023-04-30T05:58:32.887Z,69.40
2023-04-30T06:00:56.497Z,68.44
2023-04-30T06:03:21.119Z,67.58
2023-04-30T06:05:45.695Z,65.69
2023-04-30T06:08:09.260Z,63.07
2023-04-30T06:10:32.945Z,63.02
2023-04-30T06:12:57.907Z,60.04
2023-04-30T06:15:21.730Z,60.60
2023-04-30T06:17:45.346Z,60.02
2023-04-30T06:20:10.359Z,56.84
2023-04-30T06:22:34.282Z,55.79
2023-04-30T06:24:58.134Z,55.65
2023-04-30T06:27:21.700Z,54.34
2023-04-30T06:29:46.655Z,52.74
2023-04-30T06:32:10.225Z,52.07
2023-04-30T06:34:33.789Z,51.10
2023-04-30T06:36:57.288Z,53.57
2023-04-30T06:39:21.041Z,50.53
2023-04-30T06:41:44.837Z,50.79
2023-04-30T06:44:08.396Z,49.35
2023-04-30T06:46:34.845Z,47.54
2023-04-30T06:48:58.601Z,47.97
2023-04-30T06:51:22.126Z,47.43
2023-04-30T06:53:45.716Z,47.01
2023-04-30T06:56:09.619Z,45.33
2023-04-30T06:58:33.172Z,44.75
2023-04-30T07:00:56.760Z,48.13
2023-04-30T07:03:21.852Z,47.51
2023-04-30T07:05:45.628Z,45.99
2023-04-30T07:08:09.461Z,44.36
2023-04-30T07:10:33.342Z,46.96
2023-04-30T07:12:57.028Z,46.55
2023-04-30T07:15:20.930Z,48.12
2023-04-30T07:17:44.632Z,47.80
2023-04-30T07:20:11.706Z,47.09
2023-04-30T07:22:35.701Z,45.70
2023-04-30T07:24:59.342Z,45.42
2023-04-30T07:27:22.946Z,43.44
2023-04-30T07:29:46.507Z,43.30
2023-04-30T07:32:10.044Z,45.25
2023-04-30T07:34:33.568Z,45.58
2023-04-30T07:36:58.572Z,45.14
2023-04-30T07:39:22.085Z,45.39
2023-04-30T07:41:46.092Z,42.61
2023-04-30T07:44:09.667Z,43.52
2023-04-30T07:46:33.412Z,43.99
2023-04-30T07:48:57.114Z,42.82
2023-04-30T07:51:20.806Z,42.04
2023-04-30T07:53:45.964Z,42.89
2023-04-30T07:56:09.599Z,43.08
2023-04-30T07:58:33.180Z,43.17
2023-04-30T08:00:56.939Z,41.93
2023-04-30T08:03:21.166Z,41.05
2023-04-30T08:05:44.903Z,39.77
2023-04-30T08:08:08.818Z,39.21
2023-04-30T08:10:33.945Z,39.00
2023-04-30T08:12:57.545Z,36.86
2023-04-30T08:15:21.856Z,40.16
2023-04-30T08:17:45.482Z,40.65
2023-04-30T08:20:10.725Z,38.27
2023-04-30T08:22:34.389Z,39.13
2023-04-30T08:24:58.074Z,41.53
2023-04-30T08:27:23.147Z,43.42
2023-04-30T08:29:46.789Z,39.87
2023-04-30T08:32:10.426Z,41.88
2023-04-30T08:34:34.168Z,40.73
2023-04-30T08:36:57.682Z,38.08
2023-04-30T08:39:21.307Z,37.70
2023-04-30T08:41:55.241Z,40.88
2023-04-30T08:44:23.953Z,42.86
2023-04-30T08:46:48.152Z,37.95
2023-04-30T08:49:12.303Z,37.56
2023-04-30T08:51:36.325Z,37.45
2023-04-30T08:53:59.938Z,36.59
2023-04-30T08:56:25.377Z,36.19
2023-04-30T08:58:49.237Z,37.27
2023-04-30T09:01:15.019Z,34.71
2023-04-30T09:03:39.308Z,36.02
2023-04-30T09:06:02.944Z,36.36
2023-04-30T09:08:45.238Z,39.94
2023-04-30T09:11:23.800Z,36.65
2023-04-30T09:13:47.397Z,36.53
2023-04-30T09:16:10.994Z,36.83
2023-04-30T09:18:41.035Z,36.98
2023-04-30T09:21:08.248Z,39.69
2023-04-30T09:23:32.354Z,39.42
2023-04-30T09:25:56.637Z,36.67
2023-04-30T09:28:23.833Z,35.87
2023-04-30T09:30:47.507Z,35.93
2023-04-30T09:33:12.304Z,35.88
2023-04-30T09:35:39.886Z,39.12
2023-04-30T09:38:04.434Z,36.83
2023-04-30T09:40:37.004Z,35.71
2023-04-30T09:43:01.577Z,34.74
2023-04-30T09:45:25.195Z,36.58
2023-04-30T09:47:48.947Z,36.44
2023-04-30T09:50:15.432Z,35.14
2023-04-30T09:52:40.499Z,33.11
2023-04-30T09:55:04.021Z,34.25
2023-04-30T09:57:31.777Z,33.35
2023-04-30T09:59:57.720Z,34.65
2023-04-30T10:02:23.525Z,33.37
2023-04-30T10:04:55.714Z,33.60
2023-04-30T10:07:22.986Z,32.40
2023-04-30T10:09:51.973Z,33.21
2023-04-30T10:12:17.680Z,36.13
2023-04-30T10:14:46.709Z,35.77
2023-04-30T10:17:15.872Z,33.09
2023-04-30T10:19:47.688Z,32.06
2023-04-30T10:22:13.049Z,35.03
2023-04-30T10:24:36.670Z,35.56
2023-04-30T10:27:03.155Z,35.12
2023-04-30T10:29:26.700Z,34.92
2023-04-30T10:31:52.804Z,35.43
2023-04-30T10:34:26.870Z,35.29
2023-04-30T10:36:56.304Z,35.85
2023-04-30T10:39:22.498Z,32.47
2023-04-30T10:41:47.441Z,34.30
2023-04-30T10:44:12.715Z,35.90
2023-04-30T10:46:37.574Z,35.03
2023-04-30T10:49:01.347Z,32.06
2023-04-30T10:51:25.064Z,32.71
2023-04-30T10:53:52.619Z,34.13
2023-04-30T10:56:31.162Z,32.90
2023-04-30T10:58:54.790Z,32.89
2023-04-30T11:01:19.765Z,36.08
2023-04-30T11:03:45.351Z,32.83
2023-04-30T11:06:13.565Z,37.37
2023-04-30T11:08:38.958Z,35.25
2023-04-30T11:11:03.856Z,32.57
2023-04-30T11:13:29.027Z,31.42
2023-04-30T11:15:52.677Z,34.48
2023-04-30T11:18:17.828Z,31.79
2023-04-30T11:20:43.003Z,32.48
2023-04-30T11:23:21.773Z,33.69
2023-04-30T11:25:56.601Z,35.88
2023-04-30T11:28:22.768Z,35.71
2023-04-30T11:30:54.354Z,33.08
2023-04-30T11:33:19.641Z,33.67
2023-04-30T11:35:43.233Z,35.86
2023-04-30T11:38:09.023Z,36.93
2023-04-30T11:40:37.704Z,31.59
2023-04-30T11:43:01.429Z,35.08
2023-04-30T11:45:25.427Z,35.82
2023-04-30T11:47:52.122Z,31.25
2023-04-30T11:50:22.223Z,30.63
2023-04-30T11:52:52.697Z,33.37
2023-04-30T11:55:18.721Z,31.60
2023-04-30T11:57:43.666Z,30.86
2023-04-30T12:00:15.933Z,32.79
2023-04-30T12:02:40.023Z,32.40
2023-04-30T12:05:04.715Z,32.43
2023-04-30T12:07:29.764Z,36.63
2023-04-30T12:09:57.095Z,34.26
2023-04-30T12:12:29.250Z,32.82
2023-04-30T12:14:53.209Z,33.40
2023-04-30T12:17:33.764Z,32.17
2023-04-30T12:19:57.486Z,31.42
2023-04-30T12:22:21.643Z,31.15
2023-04-30T12:24:46.671Z,32.62
2023-04-30T12:27:10.258Z,35.31
2023-04-30T12:29:34.005Z,32.33
2023-04-30T12:31:58.123Z,35.78
2023-04-30T12:34:22.011Z,32.20
2023-04-30T12:36:45.552Z,31.61
2023-04-30T12:39:10.768Z,30.96
2023-04-30T12:41:39.215Z,36.71
2023-04-30T12:44:23.325Z,34.22
2023-04-30T12:46:48.147Z,34.13
2023-04-30T12:49:11.947Z,32.83
2023-04-30T12:51:37.458Z,32.41
2023-04-30T12:54:01.099Z,33.04
2023-04-30T12:56:24.690Z,35.33
2023-04-30T12:58:51.232Z,32.64
2023-04-30T13:01:18.408Z,35.97
2023-04-30T13:03:42.495Z,35.55
2023-04-30T13:06:07.292Z,33.43
2023-04-30T13:08:32.590Z,32.15
2023-04-30T13:10:58.931Z,31.66
2023-04-30T13:13:22.463Z,31.41
2023-04-30T13:15:48.191Z,31.15
2023-04-30T13:18:12.135Z,35.01
2023-04-30T13:20:35.929Z,33.75
2023-04-30T13:22:59.428Z,31.12
2023-04-30T13:25:23.486Z,34.94
2023-04-30T13:27:47.073Z,30.69
2023-04-30T13:30:12.510Z,31.38
2023-04-30T13:32:37.514Z,31.23
2023-04-30T13:35:01.308Z,33.78
2023-04-30T13:37:24.889Z,33.52
2023-04-30T13:39:48.488Z,29.49
2023-04-30T13:42:12.099Z,35.11
2023-04-30T13:44:35.904Z,33.53
2023-04-30T13:46:59.516Z,31.68
2023-04-30T13:49:24.497Z,30.56
2023-04-30T13:51:48.062Z,32.56
2023-04-30T13:54:11.642Z,33.69
2023-04-30T13:56:35.250Z,35.79
2023-04-30T13:58:58.879Z,34.25
2023-04-30T14:01:22.639Z,30.73
2023-04-30T14:03:47.188Z,31.99
2023-04-30T14:06:12.228Z,33.81
2023-04-30T14:08:35.929Z,31.41
2023-04-30T14:10:59.447Z,33.70
2023-04-30T14:13:23.044Z,30.73
2023-04-30T14:15:47.870Z,32.68
2023-04-30T14:18:12.277Z,32.99
2023-04-30T14:20:35.932Z,34.68
2023-04-30T14:23:02.693Z,33.43
2023-04-30T14:25:26.453Z,29.16
2023-04-30T14:27:50.065Z,28.65
2023-04-30T14:30:14.807Z,32.83
2023-04-30T14:32:38.640Z,33.47
2023-04-30T14:35:02.561Z,29.87
2023-04-30T14:37:26.228Z,28.99
2023-04-30T14:39:51.129Z,30.92
2023-04-30T14:42:14.731Z,32.84
2023-04-30T14:44:39.757Z,31.58
2023-04-30T14:47:04.382Z,33.00
2023-04-30T14:49:28.046Z,32.24
2023-04-30T14:51:51.659Z,31.88
2023-04-30T14:54:15.303Z,31.23
2023-04-30T14:56:40.482Z,34.72
2023-04-30T14:59:04.010Z,33.45
2023-04-30T15:01:28.697Z,34.32
2023-04-30T15:03:53.209Z,32.35
2023-04-30T15:06:17.488Z,31.52
2023-04-30T15:08:41.639Z,32.40
2023-04-30T15:11:07.066Z,31.08
2023-04-30T15:13:32.847Z,29.54
2023-04-30T15:15:56.962Z,31.23
2023-04-30T15:18:20.545Z,34.15
2023-04-30T15:20:44.154Z,31.18
2023-04-30T15:23:08.217Z,30.43
2023-04-30T15:25:32.186Z,33.77
2023-04-30T15:27:56.578Z,30.33
2023-04-30T15:30:22.680Z,32.43
2023-04-30T15:32:48.773Z,32.36
2023-04-30T15:35:13.720Z,32.75
2023-04-30T15:37:37.340Z,32.94
2023-04-30T15:40:01.112Z,32.95
2023-04-30T15:42:24.736Z,33.17
2023-04-30T15:44:48.351Z,31.67
2023-04-30T15:47:13.548Z,31.10
2023-04-30T15:49:37.167Z,31.62
2023-04-30T15:52:00.696Z,31.30
2023-04-30T15:54:24.433Z,32.36
2023-04-30T15:56:48.718Z,32.51
2023-04-30T15:59:17.583Z,32.78
2023-04-30T16:01:42.977Z,31.85
2023-04-30T16:04:08.106Z,31.84
2023-04-30T16:06:32.144Z,32.38
2023-04-30T16:08:55.778Z,32.61
2023-04-30T16:11:19.814Z,31.25
2023-04-30T16:13:43.376Z,34.00
2023-04-30T16:16:08.871Z,32.49
2023-04-30T16:18:32.573Z,30.97
2023-04-30T16:20:57.816Z,32.46
2023-04-30T16:23:21.348Z,32.49
2023-04-30T16:25:44.992Z,32.47
2023-04-30T16:28:08.725Z,31.12
2023-04-30T16:30:32.754Z,31.83
2023-04-30T16:32:56.406Z,34.20
2023-04-30T16:35:20.153Z,32.27
2023-04-30T16:37:45.100Z,35.56
2023-04-30T16:40:09.931Z,32.80
2023-04-30T16:42:33.927Z,32.41
2023-04-30T16:44:57.558Z,32.36
2023-04-30T16:47:21.265Z,33.70
2023-04-30T16:49:44.947Z,34.03
2023-04-30T16:52:08.508Z,34.05
2023-04-30T16:54:33.588Z,33.23
2023-04-30T16:56:57.157Z,33.38
2023-04-30T16:59:21.008Z,33.27
2023-04-30T17:01:45.636Z,33.14
2023-04-30T17:04:09.314Z,34.55
2023-04-30T17:06:33.576Z,33.04
2023-04-30T17:08:57.284Z,34.70
2023-04-30T17:11:23.347Z,33.33
2023-04-30T17:13:46.905Z,35.37
2023-04-30T17:16:10.497Z,34.02
2023-04-30T17:18:34.169Z,35.35
2023-04-30T17:20:58.264Z,34.46
2023-04-30T17:23:21.866Z,35.48
2023-04-30T17:25:45.826Z,35.74
2023-04-30T17:28:10.933Z,34.53
2023-04-30T17:30:35.321Z,34.48
2023-04-30T17:33:00.431Z,35.02
2023-04-30T17:35:24.265Z,35.04
2023-04-30T17:37:48.141Z,36.71
2023-04-30T17:40:12.438Z,36.98
2023-04-30T17:42:36.018Z,36.44
2023-04-30T17:45:02.233Z,35.91
2023-04-30T17:47:25.949Z,35.15
2023-04-30T17:49:49.673Z,36.68
2023-04-30T17:52:13.949Z,37.54
2023-04-30T17:54:38.194Z,35.96
2023-04-30T17:57:02.281Z,36.31
2023-04-30T17:59:25.923Z,36.08
2023-04-30T18:01:50.941Z,37.22
2023-04-30T18:04:19.319Z,37.41
2023-04-30T18:06:43.179Z,37.12
2023-04-30T18:09:06.774Z,36.55
2023-04-30T18:11:30.453Z,37.49
2023-04-30T18:13:54.001Z,39.55
2023-04-30T18:16:17.816Z,40.25
2023-04-30T18:18:42.842Z,41.01
2023-04-30T18:21:06.497Z,41.53
2023-04-30T18:23:30.002Z,42.07
2023-04-30T18:25:53.698Z,42.14
2023-04-30T18:28:17.312Z,42.37
2023-04-30T18:30:41.113Z,42.82
2023-04-30T18:33:05.375Z,43.43
2023-04-30T18:35:30.451Z,42.78
2023-04-30T18:37:54.346Z,43.69
2023-04-30T18:40:17.941Z,44.29
2023-04-30T18:42:41.588Z,44.51
2023-04-30T18:45:06.178Z,45.34
2023-04-30T18:47:30.881Z,45.31
2023-04-30T18:49:54.865Z,45.45
2023-04-30T18:52:20.008Z,45.68
2023-04-30T18:54:43.578Z,45.68
2023-04-30T18:57:07.980Z,45.84
2023-04-30T18:59:31.600Z,47.16
2023-04-30T19:01:55.710Z,47.09
2023-04-30T19:04:19.495Z,47.44
2023-04-30T19:06:43.383Z,47.83
2023-04-30T19:09:09.307Z,47.78
2023-04-30T19:11:35.548Z,48.16
2023-04-30T19:13:59.325Z,48.37
2023-04-30T19:16:22.920Z,48.49
2023-04-30T19:18:46.736Z,48.51
2023-04-30T19:21:12.910Z,48.96
2023-04-30T19:23:36.632Z,48.70
2023-04-30T19:26:01.954Z,49.15
2023-04-30T19:28:25.825Z,49.86
2023-04-30T19:30:54.295Z,49.50
2023-04-30T19:33:18.175Z,50.26
2023-04-30T19:35:41.776Z,50.17
2023-04-30T19:38:06.591Z,50.66
2023-04-30T19:40:30.193Z,50.56
2023-04-30T19:42:55.520Z,51.41
2023-04-30T19:45:19.270Z,51.25
2023-04-30T19:47:42.924Z,51.53
2023-04-30T19:50:08.074Z,52.08
2023-04-30T19:52:31.708Z,52.20
2023-04-30T19:54:55.451Z,52.04
2023-04-30T19:57:19.452Z,52.12
2023-04-30T19:59:47.252Z,51.96
2023-04-30T20:02:11.162Z,53.02
2023-04-30T20:04:34.813Z,53.78
2023-04-30T20:06:58.767Z,54.36
2023-04-30T20:09:22.271Z,53.77
2023-04-30T20:11:49.488Z,53.66
2023-04-30T20:14:13.053Z,54.66
2023-04-30T20:16:38.131Z,54.56
2023-04-30T20:19:01.763Z,55.26
2023-04-30T20:21:26.111Z,55.33
2023-04-30T20:23:49.623Z,55.30
2023-04-30T20:26:13.339Z,56.15
2023-04-30T20:28:36.938Z,55.87
2023-04-30T20:31:01.087Z,56.39
2023-04-30T20:33:28.754Z,56.36
2023-04-30T20:35:52.373Z,57.16
2023-04-30T20:38:18.905Z,57.06
2023-04-30T20:40:43.627Z,56.69
2023-04-30T20:43:07.475Z,56.78
2023-04-30T20:45:31.965Z,57.15
2023-04-30T20:47:55.632Z,57.70
2023-04-30T20:50:21.241Z,57.74
2023-04-30T20:52:44.808Z,57.10
2023-04-30T20:55:09.897Z,57.54
2023-04-30T20:57:33.538Z,58.33
2023-04-30T20:59:57.382Z,58.88
2023-04-30T21:02:21.132Z,58.52
2023-04-30T21:04:44.776Z,59.23
2023-04-30T21:07:09.744Z,59.76
2023-04-30T21:09:35.832Z,59.57
2023-04-30T21:11:59.619Z,60.16
2023-04-30T21:14:23.406Z,59.56
2023-04-30T21:16:46.954Z,60.46
2023-04-30T21:19:11.208Z,60.67
2023-04-30T21:21:34.847Z,60.80
2023-04-30T21:24:01.045Z,60.95
2023-04-30T21:26:24.639Z,60.74
2023-04-30T21:28:48.226Z,61.52
2023-04-30T21:31:11.856Z,62.18
2023-04-30T21:33:35.685Z,61.68
2023-04-30T21:35:59.174Z,62.06
2023-04-30T21:38:22.916Z,61.66
2023-04-30T21:40:47.859Z,63.40
2023-04-30T21:43:11.520Z,62.90
2023-04-30T21:45:35.089Z,62.03
2023-04-30T21:47:58.749Z,63.56
2023-04-30T21:50:23.800Z,62.71
2023-04-30T21:52:47.442Z,62.93
2023-04-30T21:55:11.685Z,63.95
2023-04-30T21:57:36.785Z,63.75
2023-04-30T22:00:00.694Z,63.74
2023-04-30T22:02:25.593Z,64.04
2023-04-30T22:04:49.221Z,64.68
2023-04-30T22:07:12.897Z,65.79
2023-04-30T22:09:36.468Z,64.23
2023-04-30T22:12:00.266Z,64.94
2023-04-30T22:14:25.253Z,66.35
2023-04-30T22:16:49.037Z,65.38
2023-04-30T22:19:12.578Z,64.47
2023-04-30T22:21:36.293Z,67.42
2023-04-30T22:24:00.896Z,68.69
2023-04-30T22:26:25.445Z,66.28
2023-04-30T22:28:49.114Z,65.87
2023-04-30T22:31:14.123Z,67.37
2023-04-30T22:33:38.235Z,68.90
2023-04-30T22:36:01.893Z,67.08
2023-04-30T22:38:25.552Z,66.67
2023-04-30T22:40:49.218Z,66.96
2023-04-30T22:43:12.882Z,67.28
2023-04-30T22:45:40.250Z,66.47
2023-04-30T22:48:05.653Z,66.66
2023-04-30T22:50:29.351Z,66.78
2023-04-30T22:52:56.289Z,67.21
2023-04-30T22:55:20.052Z,66.19
2023-04-30T22:57:43.667Z,66.56
2023-04-30T23:00:09.414Z,67.34
2023-04-30T23:02:34.160Z,66.87
2023-04-30T23:04:59.255Z,70.54
2023-04-30T23:07:22.817Z,67.16
2023-04-30T23:09:46.396Z,68.38
2023-04-30T23:12:10.235Z,66.74
2023-04-30T23:14:33.907Z,67.29
2023-04-30T23:16:57.456Z,67.94
2023-04-30T23:19:21.461Z,69.98
2023-04-30T23:21:46.426Z,67.71
2023-04-30T23:24:11.211Z,68.13
2023-04-30T23:26:34.787Z,67.97
2023-04-30T23:28:58.368Z,67.60
2023-04-30T23:31:21.914Z,68.37
2023-04-30T23:33:45.589Z,68.37
2023-04-30T23:36:09.276Z,68.93
2023-04-30T23:38:34.314Z,67.96
2023-04-30T23:40:57.822Z,68.08
2023-04-30T23:43:21.385Z,68.51
2023-04-30T23:45:44.912Z,69.02
2023-04-30T23:48:08.762Z,69.88
2023-04-30T23:50:32.288Z,68.31
2023-04-30T23:52:55.911Z,69.44
2023-04-30T23:55:21.343Z,68.91
2023-04-30T23:57:45.055Z,68.73
